OICK  Khoram Abad Airport

Add Bookmark

Iran

Status IATA
Operational KHD
Latitude Longitude
33° 26' 7" N 48° 16' 58" E
33.435398 48.282902
Local (DST + 5) UTC (GMT + 4)
Feb 2, 2015 05:14 Feb 2, 2015 01:44
Sunrise-Sunset Local UTC
Begin Civil Twilight 06:44 03:14
Sunrise 07:10 03:40
Sunset 05:50 14:20
End Civil Twilight 06:16 14:46

Current Weather

METAR Observed VFR
OICK 011300Z 25006KT CAVOK 15/M08 Q1020 Sun, Feb 1, 2015 @ 13:00 UTC
(12 Hours, 44 Minutes ago)
Visual Flight Rules
Wind Visibility Clouds Conditions
250° at 6 knots (11 kph) 10 km or more
  • Clear skies
  • No significant weather
Temperatures Readings Precipitation
Current Temp 15°C (59°F)
Dewpoint -8°C (18°F)
Humidity 20%
Altimeter 30.12"Hg
Sea Level Pressure 1020mb
Field Elevation 3789.37'
None Recorded

24 Hour Weather History

Loading
-

24 Hour Weather Graphs

Loading
-

CheckWX.com is intended as a tool to help pilots better visualize weather data. It is not intended as a substitute for an official weather briefing obtained from a Flight Service Station. CheckWX.com does not meet the FAA requirements for an official pre-flight weather briefing. Therefore, it's important that pilots still call and obtain an official FSS pre-flight weather briefing.